Zhaltyr, Kazakhstan
Current Conditions -  °F | °C
As of 7:30 PM on Tuesday 21 Oct 2014 (Local Time) from UACC Reporting Station
Clear Clear  
Wind Chill: 24°   Ceiling: Unl
Heat Index: 32°   Visibility: 6mi
Dew Point: 23°   Wind: 9mph
Humidity: 69%   Direction: 250°WSW
Pressure: 30.15"   Gusts: NA
Location:  51.62°N, 69.8°E
Report Text: UACC 211330Z 25004MPS CAVOK M00/M05 Q1021 R22/0/0070 NOSIG RMKQFE734/0979
Loading
Personal Weather Stations






























Interactive Weather Map
Tropical Storm Tracking
New forecast layout! Learn more

10-Day Weather Forecast

Advertisements
Track Severe Weather on mobile